Aeroparque Buenos Aires, Argentina
Current Conditions -  °F | °C
As of 11:00 AM on Thursday 30 Oct 2014 (Local Time) from SABE Reporting Station
Broken Clouds Broken Clouds  
Wind Chill: 72°   Ceiling: 20000
Heat Index: 72°   Visibility: 6mi
Dew Point: 59°   Wind: 6mph
Humidity: 64%   Direction: 360°N
Pressure: 29.85"   Gusts: NA
Location:  34.58°S, 58.43°W
Report Text: SABE 301400Z 36005KT 9999 SCT032 BKN20022/15 Q1011
Loading
Personal Weather Stations






























Interactive Weather Map New forecast layout! Learn more

10-Day Weather Forecast

Advertisements
Track Severe Weather on mobile